Hlavní strana
METAR-TAF:

METAR-TAF

Letiště :

Dalton Municipal Airport

Dalton, Georgie, Spojené státy americké

zeměpisná šířka: 34-43-18N, zeměpisná délka: 084-52-09W, výška: 216 m

Aktuální stav počasí

Zpráva byla vytvořena před 21 minutami, v 00:55 UTC
Západoseverozápadní vítr 4 kt
Teplota 26°C
Vlhkost vzduchu 70%
Tlak 1016 hPa
Viditelnost: 16.1 km
Zataženo ve výšce 8000 ft

METAR: KDNN 220055Z AUTO 30004KT 10SM OVC080 26/20 A3001 RMK AO2

Čas: 21:16 (01:16 UTC)


TAF: chybějící

Stav a předpovědi počasí z více než 4 000 letišť (zprávy METAR a TAF).

Červené a žluté tečky na mapě představují dostupné meteorologické stanice.

Když kurzor umístíte na tečku, zobrazí se název stanice.

Pak kliknutím zobrazíte stav a předpověď počasí.

Chcete-li změnit mapu, kliknutím na zelené tlačítko se znaménkem +mapu přiblížíte, kliknutím na zelené tlačítko se znaménkem – mapu oddálíte a kliknutím na zelené šipky přejdete na sousední mapy.


METAR-TAF: